NCAR-RAP Real-Time Weather Data

Output produced by METARs form (06 May 2021  15:42 UTC)
found at http://weather.rap.ucar.edu/surface/
 
KVEL 061453Z AUTO 14004KT 10SM CLR 13/M04 A3031 RMK AO2 SLP225 T01331044 51007
KVEL 061353Z AUTO 00000KT 10SM CLR 11/M04 A3031 RMK AO2 SLP223 T01061044
KVEL 061253Z AUTO 33003KT 10SM CLR 06/M04 A3030 RMK AO2 SLP225 T00611039
KVEL 061153Z AUTO 20005KT 10SM CLR 03/M05 A3029 RMK AO2 SLP225 T00331050 10117 20033 53009
KVEL 061053Z AUTO 32003KT 10SM CLR 06/M06 A3028 RMK AO2 SLP217 T00611056
KVEL 060953Z AUTO 31004KT 10SM CLR 06/M05 A3026 RMK AO2 SLP212 T00611050
KVEL 060853Z AUTO 30004KT 10SM CLR 08/M05 A3026 RMK AO2 SLP209 T00831050 50001
KVEL 060753Z AUTO 29007KT 10SM CLR 08/M04 A3027 RMK AO2 SLP215 T00831044
KVEL 060653Z AUTO 27004KT 10SM CLR 09/M04 A3026 RMK AO2 SLP211 T00941044 402060050
KVEL 060553Z AUTO 29004KT 10SM CLR 12/M04 A3026 RMK AO2 SLP205 T01171044 10206 20089 51013
KVEL 060453Z AUTO 28006KT 10SM CLR 12/M04 A3025 RMK AO2 SLP206 T01171039
KVEL 060353Z AUTO 30006KT 10SM CLR 12/M04 A3024 RMK AO2 SLP203 T01221039
KVEL 060253Z AUTO 28003KT 10SM CLR 15/M06 A3021 RMK AO2 SLP192 T01501056 53007
KVEL 060153Z AUTO 09003KT 10SM CLR 19/M07 A3019 RMK AO2 SLP180 T01891067